Terminal Aerodrome Forecast
Issued by NWS

Home | Current Version | Previous Version | Text Only | Print | Product List | Glossary On
Versions: 1 2 3 4 5 6 7 8 9 10 11 12 13 14 15 16
000
FTUS41 KCAR 240400 AAC
TAFBHB
TAF AMD
KBHB 240405Z 2404/2424 26005KT P6SM -RA SCT045 OVC110
     FM240800 34004KT 6SM -RA SCT030 OVC070
     FM241500 02004KT P6SM BKN060
      AMD LTD TO CLD VIS AND WIND=

USA.gov is the U.S. government's official web portal to all federal, state and local government web resources and services.